sensor_id;sensor_type;location;lat;lon;timestamp;pressure;altitude;pressure_sealevel;temperature;humidity
12913;BME280;6524;51.368;11.984;2023-06-01T04:01:21;100662.91;;;8.39;70.68
12913;BME280;6524;51.368;11.984;2023-06-01T04:06:23;100659.97;;;8.46;70.02
12913;BME280;6524;51.368;11.984;2023-06-01T04:11:24;100653.66;;;8.48;70.36
12913;BME280;6524;51.368;11.984;2023-06-01T04:16:25;100654.53;;;8.49;70.39
12913;BME280;6524;51.368;11.984;2023-06-01T04:21:25;100651.75;;;8.52;70.60
12913;BME280;6524;51.368;11.984;2023-06-01T04:26:26;100659.16;;;8.61;70.82
12913;BME280;6524;51.368;11.984;2023-06-01T04:31:27;100659.41;;;8.72;72.09
12913;BME280;6524;51.368;11.984;2023-06-01T04:36:28;100668.50;;;9.00;71.34
12913;BME280;6524;51.368;11.984;2023-06-01T04:41:29;100674.28;;;9.22;70.65
12913;BME280;6524;51.368;11.984;2023-06-01T04:46:31;100664.41;;;9.26;71.03
12913;BME280;6524;51.368;11.984;2023-06-01T04:51:31;100665.78;;;9.49;70.87
12913;BME280;6524;51.368;11.984;2023-06-01T04:56:33;100667.00;;;9.57;70.42
12913;BME280;6524;51.368;11.984;2023-06-01T05:01:33;100664.63;;;9.85;69.66
12913;BME280;6524;51.368;11.984;2023-06-01T05:06:33;100650.41;;;9.87;69.52
12913;BME280;6524;51.368;11.984;2023-06-01T05:11:34;100657.38;;;9.88;69.98
12913;BME280;6524;51.368;11.984;2023-06-01T05:16:34;100665.75;;;9.80;69.83
12913;BME280;6524;51.368;11.984;2023-06-01T05:21:35;100663.22;;;10.38;68.56
12913;BME280;6524;51.368;11.984;2023-06-01T05:26:36;100657.00;;;10.67;67.32
12913;BME280;6524;51.368;11.984;2023-06-01T05:31:36;100659.47;;;10.85;66.25
12913;BME280;6524;51.368;11.984;2023-06-01T05:36:36;100668.69;;;11.06;65.88
12913;BME280;6524;51.368;11.984;2023-06-01T05:41:37;100667.91;;;11.18;65.43
12913;BME280;6524;51.368;11.984;2023-06-01T05:46:37;100669.47;;;10.94;65.73
12913;BME280;6524;51.368;11.984;2023-06-01T05:51:37;100672.50;;;11.02;65.25
12913;BME280;6524;51.368;11.984;2023-06-01T05:56:40;100679.91;;;11.10;64.34
12913;BME280;6524;51.368;11.984;2023-06-01T06:01:42;100679.66;;;11.00;64.06
12913;BME280;6524;51.368;11.984;2023-06-01T06:06:44;100679.47;;;11.03;63.37
12913;BME280;6524;51.368;11.984;2023-06-01T06:11:44;100683.78;;;11.18;62.67
12913;BME280;6524;51.368;11.984;2023-06-01T06:16:45;100677.59;;;10.77;64.03
12913;BME280;6524;51.368;11.984;2023-06-01T07:21:01;100672.97;;;14.25;52.33
12913;BME280;6524;51.368;11.984;2023-06-01T07:26:01;100674.22;;;14.55;51.89
12913;BME280;6524;51.368;11.984;2023-06-01T07:31:02;100670.47;;;14.91;50.84
12913;BME280;6524;51.368;11.984;2023-06-01T07:36:03;100665.84;;;15.27;49.31
12913;BME280;6524;51.368;11.984;2023-06-01T07:41:04;100668.75;;;15.24;49.94
12913;BME280;6524;51.368;11.984;2023-06-01T07:46:05;100663.81;;;15.19;49.37
12913;BME280;6524;51.368;11.984;2023-06-01T07:51:05;100671.59;;;15.87;48.09
12913;BME280;6524;51.368;11.984;2023-06-01T07:56:07;100653.31;;;16.03;47.26
12913;BME280;6524;51.368;11.984;2023-06-01T08:01:07;100654.88;;;16.27;46.86
12913;BME280;6524;51.368;11.984;2023-06-01T08:06:08;100651.03;;;17.11;44.87
12913;BME280;6524;51.368;11.984;2023-06-01T08:11:08;100647.28;;;16.74;45.95
12913;BME280;6524;51.368;11.984;2023-06-01T08:16:09;100642.69;;;17.45;43.63
12913;BME280;6524;51.368;11.984;2023-06-01T08:21:10;100641.00;;;17.73;43.22
12913;BME280;6524;51.368;11.984;2023-06-01T08:26:10;100644.56;;;18.40;41.69
12913;BME280;6524;51.368;11.984;2023-06-01T08:31:11;100634.22;;;18.92;40.50
12913;BME280;6524;51.368;11.984;2023-06-01T08:36:11;100630.91;;;19.26;38.76
12913;BME280;6524;51.368;11.984;2023-06-01T08:41:32;100627.84;;;19.57;38.76
12913;BME280;6524;51.368;11.984;2023-06-01T08:46:39;100628.31;;;19.34;38.32
12913;BME280;6524;51.368;11.984;2023-06-01T08:51:42;100616.06;;;19.14;38.90
12913;BME280;6524;51.368;11.984;2023-06-01T08:56:43;100615.03;;;20.30;37.12
12913;BME280;6524;51.368;11.984;2023-06-01T09:01:45;100617.06;;;19.84;37.30
12913;BME280;6524;51.368;11.984;2023-06-01T09:06:46;100613.16;;;19.61;37.40
12913;BME280;6524;51.368;11.984;2023-06-01T09:11:46;100611.63;;;19.05;38.65
12913;BME280;6524;51.368;11.984;2023-06-01T09:16:48;100610.66;;;19.24;38.53
12913;BME280;6524;51.368;11.984;2023-06-01T09:21:59;100613.41;;;18.86;38.51
12913;BME280;6524;51.368;11.984;2023-06-01T09:27:00;100614.13;;;18.61;39.49
12913;BME280;6524;51.368;11.984;2023-06-01T09:32:01;100609.53;;;18.71;38.94
12913;BME280;6524;51.368;11.984;2023-06-01T09:37:05;100610.53;;;20.05;37.37
12913;BME280;6524;51.368;11.984;2023-06-01T09:42:07;100602.84;;;19.84;37.67
12913;BME280;6524;51.368;11.984;2023-06-01T09:47:10;100607.56;;;19.72;37.30
12913;BME280;6524;51.368;11.984;2023-06-01T09:52:14;100598.31;;;19.84;37.62
12913;BME280;6524;51.368;11.984;2023-06-01T09:57:26;100600.56;;;21.00;36.30
12913;BME280;6524;51.368;11.984;2023-06-01T10:02:26;100591.03;;;21.14;36.25
12913;BME280;6524;51.368;11.984;2023-06-01T10:07:31;100593.16;;;20.94;36.54
12913;BME280;6524;51.368;11.984;2023-06-01T10:12:34;100583.94;;;20.96;36.50
12913;BME280;6524;51.368;11.984;2023-06-01T10:17:35;100583.25;;;20.44;36.80
12913;BME280;6524;51.368;11.984;2023-06-01T10:22:40;100574.00;;;20.89;36.44
12913;BME280;6524;51.368;11.984;2023-06-01T10:27:50;100573.56;;;20.51;37.73
12913;BME280;6524;51.368;11.984;2023-06-01T10:32:51;100569.75;;;20.27;37.82
12913;BME280;6524;51.368;11.984;2023-06-01T10:43:07;100555.78;;;20.50;38.25
12913;BME280;6524;51.368;11.984;2023-06-01T10:48:10;100557.28;;;21.11;37.11
12913;BME280;6524;51.368;11.984;2023-06-01T10:53:30;100559.06;;;20.86;37.63
12913;BME280;6524;51.368;11.984;2023-06-01T10:58:31;100548.88;;;20.98;37.44
12913;BME280;6524;51.368;11.984;2023-06-01T11:03:43;100552.94;;;21.26;37.35
12913;BME280;6524;51.368;11.984;2023-06-01T11:14:05;100539.19;;;21.13;37.39
12913;BME280;6524;51.368;11.984;2023-06-01T11:19:07;100527.31;;;22.20;35.69
12913;BME280;6524;51.368;11.984;2023-06-01T11:24:13;100522.94;;;22.19;35.52
12913;BME280;6524;51.368;11.984;2023-06-01T11:29:19;100512.28;;;21.87;35.53
12913;BME280;6524;51.368;11.984;2023-06-01T11:39:27;100496.72;;;22.05;35.10
12913;BME280;6524;51.368;11.984;2023-06-01T11:44:35;100499.47;;;21.97;35.66
12913;BME280;6524;51.368;11.984;2023-06-01T11:49:49;100497.88;;;22.19;35.27
12913;BME280;6524;51.368;11.984;2023-06-01T11:54:50;100485.41;;;21.79;35.81
12913;BME280;6524;51.368;11.984;2023-06-01T11:59:53;100481.41;;;21.50;35.37
12913;BME280;6524;51.368;11.984;2023-06-01T12:05:18;100484.16;;;21.97;35.39
12913;BME280;6524;51.368;11.984;2023-06-01T12:10:19;100475.16;;;22.30;34.60
12913;BME280;6524;51.368;11.984;2023-06-01T12:15:20;100469.13;;;22.28;33.50
12913;BME280;6524;51.368;11.984;2023-06-01T12:20:31;100464.84;;;21.94;34.70
12913;BME280;6524;51.368;11.984;2023-06-01T12:25:32;100468.91;;;22.92;33.66
12913;BME280;6524;51.368;11.984;2023-06-01T12:30:33;100460.97;;;23.13;33.57
12913;BME280;6524;51.368;11.984;2023-06-01T12:35:48;100451.53;;;22.94;32.95
12913;BME280;6524;51.368;11.984;2023-06-01T12:41:09;100450.47;;;22.80;33.01
12913;BME280;6524;51.368;11.984;2023-06-01T12:46:18;100442.22;;;23.20;32.32
12913;BME280;6524;51.368;11.984;2023-06-01T12:51:20;100440.72;;;23.40;32.64
12913;BME280;6524;51.368;11.984;2023-06-01T12:56:21;100444.63;;;23.38;31.85
12913;BME280;6524;51.368;11.984;2023-06-01T13:01:22;100442.91;;;23.37;32.33
12913;BME280;6524;51.368;11.984;2023-06-01T13:06:23;100431.38;;;23.28;32.54
12913;BME280;6524;51.368;11.984;2023-06-01T13:11:24;100425.91;;;22.98;33.16
12913;BME280;6524;51.368;11.984;2023-06-01T13:16:24;100426.53;;;22.85;33.07
12913;BME280;6524;51.368;11.984;2023-06-01T13:21:27;100421.22;;;23.15;32.98
12913;BME280;6524;51.368;11.984;2023-06-01T13:26:28;100428.59;;;23.36;32.92
12913;BME280;6524;51.368;11.984;2023-06-01T13:31:28;100415.53;;;23.63;32.73
12913;BME280;6524;51.368;11.984;2023-06-01T13:36:30;100409.97;;;23.11;33.34
12913;BME280;6524;51.368;11.984;2023-06-01T13:41:30;100413.88;;;23.24;32.87
12913;BME280;6524;51.368;11.984;2023-06-01T13:46:31;100411.34;;;23.45;33.45
12913;BME280;6524;51.368;11.984;2023-06-01T13:51:32;100409.88;;;23.20;32.93
12913;BME280;6524;51.368;11.984;2023-06-01T13:56:33;100402.34;;;23.00;33.44
12913;BME280;6524;51.368;11.984;2023-06-01T14:01:34;100395.69;;;22.42;34.27
12913;BME280;6524;51.368;11.984;2023-06-01T14:06:35;100396.16;;;21.27;34.43
12913;BME280;6524;51.368;11.984;2023-06-01T14:11:35;100397.59;;;21.63;34.33
12913;BME280;6524;51.368;11.984;2023-06-01T14:16:36;100395.00;;;21.22;34.47
12913;BME280;6524;51.368;11.984;2023-06-01T14:21:37;100391.03;;;21.65;34.37
12913;BME280;6524;51.368;11.984;2023-06-01T14:27:00;100381.66;;;21.53;35.12
12913;BME280;6524;51.368;11.984;2023-06-01T14:32:20;100384.41;;;21.28;35.56
12913;BME280;6524;51.368;11.984;2023-06-01T14:37:20;100379.75;;;20.90;36.39
12913;BME280;6524;51.368;11.984;2023-06-01T14:42:21;100376.03;;;20.99;36.77
12913;BME280;6524;51.368;11.984;2023-06-01T14:47:21;100380.22;;;20.60;35.59
12913;BME280;6524;51.368;11.984;2023-06-01T14:52:21;100372.34;;;20.59;35.70
12913;BME280;6524;51.368;11.984;2023-06-01T14:57:22;100377.72;;;20.59;35.07
12913;BME280;6524;51.368;11.984;2023-06-01T15:02:22;100376.97;;;20.32;34.90
12913;BME280;6524;51.368;11.984;2023-06-01T15:07:23;100362.22;;;20.20;35.08
12913;BME280;6524;51.368;11.984;2023-06-01T15:12:23;100367.66;;;19.86;36.36
12913;BME280;6524;51.368;11.984;2023-06-01T15:17:23;100363.41;;;19.75;36.38
12913;BME280;6524;51.368;11.984;2023-06-01T15:22:24;100359.47;;;19.53;36.84
12913;BME280;6524;51.368;11.984;2023-06-01T15:27:25;100356.00;;;19.27;36.90
12913;BME280;6524;51.368;11.984;2023-06-01T15:32:25;100351.03;;;18.70;37.47
12913;BME280;6524;51.368;11.984;2023-06-01T15:37:25;100348.22;;;18.53;37.72
12913;BME280;6524;51.368;11.984;2023-06-01T15:42:26;100347.44;;;18.43;38.50
12913;BME280;6524;51.368;11.984;2023-06-01T15:47:26;100351.59;;;18.56;38.65
12913;BME280;6524;51.368;11.984;2023-06-01T15:52:26;100351.09;;;18.24;39.09
12913;BME280;6524;51.368;11.984;2023-06-01T15:57:27;100342.91;;;18.26;40.30
12913;BME280;6524;51.368;11.984;2023-06-01T16:02:28;100349.59;;;17.94;39.38
12913;BME280;6524;51.368;11.984;2023-06-01T16:07:28;100342.94;;;18.08;39.38
12913;BME280;6524;51.368;11.984;2023-06-01T16:12:28;100337.03;;;17.77;40.29
12913;BME280;6524;51.368;11.984;2023-06-01T16:17:29;100339.16;;;17.83;40.37
12913;BME280;6524;51.368;11.984;2023-06-01T16:22:29;100339.41;;;17.52;40.87
12913;BME280;6524;51.368;11.984;2023-06-01T16:27:30;100342.25;;;17.41;41.83
12913;BME280;6524;51.368;11.984;2023-06-01T16:32:30;100329.00;;;17.22;41.36
12913;BME280;6524;51.368;11.984;2023-06-01T16:37:31;100332.06;;;17.27;41.84
12913;BME280;6524;51.368;11.984;2023-06-01T16:42:31;100324.16;;;17.35;42.17
12913;BME280;6524;51.368;11.984;2023-06-01T16:47:32;100327.72;;;17.06;42.54
12913;BME280;6524;51.368;11.984;2023-06-01T16:52:32;100325.28;;;16.56;44.33
12913;BME280;6524;51.368;11.984;2023-06-01T16:57:32;100320.47;;;15.92;45.05
12913;BME280;6524;51.368;11.984;2023-06-01T17:02:33;100323.28;;;15.60;45.88
12913;BME280;6524;51.368;11.984;2023-06-01T17:07:36;100325.69;;;15.63;45.84
12913;BME280;6524;51.368;11.984;2023-06-01T17:12:36;100320.44;;;15.72;46.47
12913;BME280;6524;51.368;11.984;2023-06-01T17:17:37;100324.44;;;15.57;47.16
12913;BME280;6524;51.368;11.984;2023-06-01T17:22:38;100323.03;;;15.22;47.04
12913;BME280;6524;51.368;11.984;2023-06-01T17:27:40;100318.09;;;15.18;48.02
12913;BME280;6524;51.368;11.984;2023-06-01T17:32:43;100327.81;;;15.28;47.67
12913;BME280;6524;51.368;11.984;2023-06-01T17:37:44;100333.13;;;15.28;48.12
12913;BME280;6524;51.368;11.984;2023-06-01T17:42:44;100332.44;;;15.05;47.92
12913;BME280;6524;51.368;11.984;2023-06-01T17:47:45;100327.53;;;15.01;48.69
12913;BME280;6524;51.368;11.984;2023-06-01T17:52:45;100322.91;;;14.61;49.27
12913;BME280;6524;51.368;11.984;2023-06-01T17:57:46;100325.09;;;14.56;49.92
12913;BME280;6524;51.368;11.984;2023-06-01T18:02:47;100325.09;;;14.24;50.58
12913;BME280;6524;51.368;11.984;2023-06-01T18:07:49;100328.28;;;14.06;51.01
12913;BME280;6524;51.368;11.984;2023-06-01T18:12:49;100318.09;;;13.79;51.26
12913;BME280;6524;51.368;11.984;2023-06-01T18:17:50;100322.19;;;13.61;51.44
12913;BME280;6524;51.368;11.984;2023-06-01T18:22:50;100321.59;;;13.35;52.72
12913;BME280;6524;51.368;11.984;2023-06-01T18:27:54;100324.94;;;13.14;53.00
12913;BME280;6524;51.368;11.984;2023-06-01T18:32:54;100332.19;;;13.12;53.00
12913;BME280;6524;51.368;11.984;2023-06-01T18:37:54;100344.94;;;13.07;53.33
12913;BME280;6524;51.368;11.984;2023-06-01T18:42:55;100347.19;;;12.89;53.39
12913;BME280;6524;51.368;11.984;2023-06-01T18:47:55;100348.13;;;12.77;54.25
12913;BME280;6524;51.368;11.984;2023-06-01T18:52:56;100352.19;;;12.70;54.36
12913;BME280;6524;51.368;11.984;2023-06-01T18:57:56;100355.28;;;12.40;55.00
12913;BME280;6524;51.368;11.984;2023-06-01T19:02:57;100358.53;;;12.32;55.64
12913;BME280;6524;51.368;11.984;2023-06-01T19:07:57;100359.19;;;12.23;55.40
12913;BME280;6524;51.368;11.984;2023-06-01T19:13:00;100365.38;;;12.10;55.63
12913;BME280;6524;51.368;11.984;2023-06-01T19:18:02;100364.81;;;11.94;56.01
12913;BME280;6524;51.368;11.984;2023-06-01T19:23:12;100368.75;;;11.76;56.75
12913;BME280;6524;51.368;11.984;2023-06-01T19:28:19;100372.25;;;11.63;57.34
12913;BME280;6524;51.368;11.984;2023-06-01T19:33:20;100381.81;;;11.28;58.20
12913;BME280;6524;51.368;11.984;2023-06-01T19:44:15;100388.97;;;11.00;59.16
12913;BME280;6524;51.368;11.984;2023-06-01T19:49:16;100395.00;;;11.02;59.05
12913;BME280;6524;51.368;11.984;2023-06-01T19:54:21;100406.03;;;10.82;59.59
12913;BME280;6524;51.368;11.984;2023-06-01T19:59:27;100406.66;;;10.58;60.40
12913;BME280;6524;51.368;11.984;2023-06-01T20:04:31;100409.75;;;10.52;60.48
12913;BME280;6524;51.368;11.984;2023-06-01T20:09:33;100403.59;;;10.52;60.26
12913;BME280;6524;51.368;11.984;2023-06-01T20:14:33;100409.22;;;10.33;60.76
12913;BME280;6524;51.368;11.984;2023-06-01T20:19:34;100418.28;;;10.29;61.15
12913;BME280;6524;51.368;11.984;2023-06-01T20:24:34;100413.31;;;10.51;60.53
12913;BME280;6524;51.368;11.984;2023-06-01T20:29:35;100415.63;;;10.43;60.03
12913;BME280;6524;51.368;11.984;2023-06-01T20:34:36;100418.50;;;10.11;61.24
12913;BME280;6524;51.368;11.984;2023-06-01T20:39:39;100423.44;;;10.03;61.33
12913;BME280;6524;51.368;11.984;2023-06-01T20:44:43;100417.88;;;9.93;61.55
12913;BME280;6524;51.368;11.984;2023-06-01T20:49:44;100425.69;;;9.66;62.40
12913;BME280;6524;51.368;11.984;2023-06-01T20:54:48;100435.94;;;9.56;62.69
12913;BME280;6524;51.368;11.984;2023-06-01T20:59:48;100419.84;;;9.47;62.56
12913;BME280;6524;51.368;11.984;2023-06-01T21:04:49;100428.50;;;9.49;62.56
12913;BME280;6524;51.368;11.984;2023-06-01T21:09:49;100426.56;;;9.22;63.09
12913;BME280;6524;51.368;11.984;2023-06-01T21:14:50;100432.44;;;8.97;63.63
12913;BME280;6524;51.368;11.984;2023-06-01T21:19:50;100435.19;;;8.96;63.46
12913;BME280;6524;51.368;11.984;2023-06-01T21:24:50;100432.97;;;9.18;62.89
12913;BME280;6524;51.368;11.984;2023-06-01T21:29:51;100434.47;;;8.92;63.59
12913;BME280;6524;51.368;11.984;2023-06-01T21:34:51;100440.13;;;8.86;63.74
12913;BME280;6524;51.368;11.984;2023-06-01T21:39:51;100444.16;;;8.92;63.71
12913;BME280;6524;51.368;11.984;2023-06-01T21:44:52;100447.94;;;8.87;63.36
12913;BME280;6524;51.368;11.984;2023-06-01T21:49:52;100442.03;;;8.98;63.04
12913;BME280;6524;51.368;11.984;2023-06-01T21:54:52;100446.63;;;8.95;63.05
12913;BME280;6524;51.368;11.984;2023-06-01T21:59:53;100447.94;;;8.87;63.41
12913;BME280;6524;51.368;11.984;2023-06-01T22:04:53;100451.88;;;8.80;63.16
12913;BME280;6524;51.368;11.984;2023-06-01T22:09:54;100460.69;;;8.48;64.48
12913;BME280;6524;51.368;11.984;2023-06-01T22:14:56;100466.97;;;8.45;64.73
12913;BME280;6524;51.368;11.984;2023-06-01T22:19:56;100460.50;;;8.51;64.08
12913;BME280;6524;51.368;11.984;2023-06-01T22:24:57;100472.16;;;8.47;64.37
12913;BME280;6524;51.368;11.984;2023-06-01T22:29:57;100476.56;;;8.30;64.79
12913;BME280;6524;51.368;11.984;2023-06-01T22:34:58;100485.81;;;8.37;64.47
12913;BME280;6524;51.368;11.984;2023-06-01T22:39:58;100484.03;;;8.22;65.17
12913;BME280;6524;51.368;11.984;2023-06-01T22:44:59;100482.34;;;8.21;65.20
12913;BME280;6524;51.368;11.984;2023-06-01T22:49:59;100489.03;;;8.11;65.32
12913;BME280;6524;51.368;11.984;2023-06-01T22:54:59;100479.25;;;8.13;65.62
12913;BME280;6524;51.368;11.984;2023-06-01T23:00:06;100485.28;;;7.99;66.06
12913;BME280;6524;51.368;11.984;2023-06-01T23:05:07;100480.84;;;8.00;66.11
12913;BME280;6524;51.368;11.984;2023-06-01T23:10:07;100488.44;;;7.88;66.19
12913;BME280;6524;51.368;11.984;2023-06-01T23:15:09;100486.56;;;7.75;67.11
12913;BME280;6524;51.368;11.984;2023-06-01T23:20:10;100485.72;;;7.74;66.61
12913;BME280;6524;51.368;11.984;2023-06-01T23:25:11;100505.16;;;7.87;66.16
12913;BME280;6524;51.368;11.984;2023-06-01T23:30:12;100498.47;;;7.98;65.63
12913;BME280;6524;51.368;11.984;2023-06-01T23:35:13;100495.97;;;8.12;64.73
12913;BME280;6524;51.368;11.984;2023-06-01T23:40:14;100494.97;;;8.14;64.76
12913;BME280;6524;51.368;11.984;2023-06-01T23:45:15;100487.97;;;7.98;65.27
12913;BME280;6524;51.368;11.984;2023-06-01T23:50:16;100487.72;;;7.69;65.58
12913;BME280;6524;51.368;11.984;2023-06-01T23:55:16;100491.47;;;7.63;66.11
